sensor_id;sensor_type;location;lat;lon;timestamp;P1;durP1;ratioP1;P2;durP2;ratioP2
18100;SDS011;9177;49.156;8.142;2023-10-31T00:02:11;1.77;;;1.40;;
18100;SDS011;9177;49.156;8.142;2023-10-31T00:04:39;1.47;;;1.37;;
18100;SDS011;9177;49.156;8.142;2023-10-31T00:07:06;1.50;;;1.40;;
18100;SDS011;9177;49.156;8.142;2023-10-31T00:09:33;1.40;;;1.20;;
18100;SDS011;9177;49.156;8.142;2023-10-31T00:12:00;1.50;;;1.40;;
18100;SDS011;9177;49.156;8.142;2023-10-31T00:14:27;1.77;;;1.33;;
18100;SDS011;9177;49.156;8.142;2023-10-31T00:16:54;1.30;;;1.20;;
18100;SDS011;9177;49.156;8.142;2023-10-31T00:19:21;1.73;;;1.23;;
18100;SDS011;9177;49.156;8.142;2023-10-31T00:21:49;1.73;;;1.40;;
18100;SDS011;9177;49.156;8.142;2023-10-31T00:24:16;1.30;;;1.20;;
18100;SDS011;9177;49.156;8.142;2023-10-31T00:26:43;1.57;;;1.47;;
18100;SDS011;9177;49.156;8.142;2023-10-31T00:29:10;1.30;;;1.20;;
18100;SDS011;9177;49.156;8.142;2023-10-31T00:31:37;3.60;;;1.30;;
18100;SDS011;9177;49.156;8.142;2023-10-31T00:34:06;1.43;;;1.30;;
18100;SDS011;9177;49.156;8.142;2023-10-31T00:36:33;1.40;;;1.30;;
18100;SDS011;9177;49.156;8.142;2023-10-31T00:39:01;1.20;;;1.10;;
18100;SDS011;9177;49.156;8.142;2023-10-31T00:41:29;1.53;;;1.20;;
18100;SDS011;9177;49.156;8.142;2023-10-31T00:43:56;1.40;;;1.30;;
18100;SDS011;9177;49.156;8.142;2023-10-31T00:46:23;1.17;;;1.07;;
18100;SDS011;9177;49.156;8.142;2023-10-31T00:48:50;1.80;;;1.10;;
18100;SDS011;9177;49.156;8.142;2023-10-31T00:51:17;1.30;;;1.20;;
18100;SDS011;9177;49.156;8.142;2023-10-31T00:53:44;1.40;;;1.30;;
18100;SDS011;9177;49.156;8.142;2023-10-31T00:56:20;1.63;;;1.23;;
18100;SDS011;9177;49.156;8.142;2023-10-31T00:59:02;1.20;;;1.10;;
18100;SDS011;9177;49.156;8.142;2023-10-31T01:01:29;1.20;;;1.10;;
18100;SDS011;9177;49.156;8.142;2023-10-31T01:03:55;1.90;;;1.27;;
18100;SDS011;9177;49.156;8.142;2023-10-31T01:06:22;1.30;;;1.17;;
18100;SDS011;9177;49.156;8.142;2023-10-31T01:08:49;1.67;;;1.30;;
18100;SDS011;9177;49.156;8.142;2023-10-31T01:11:16;1.67;;;1.30;;
18100;SDS011;9177;49.156;8.142;2023-10-31T01:13:44;1.20;;;1.10;;
18100;SDS011;9177;49.156;8.142;2023-10-31T01:16:11;1.17;;;1.00;;
18100;SDS011;9177;49.156;8.142;2023-10-31T01:18:38;1.63;;;0.90;;
18100;SDS011;9177;49.156;8.142;2023-10-31T01:21:05;1.00;;;1.00;;
18100;SDS011;9177;49.156;8.142;2023-10-31T01:23:34;1.13;;;1.03;;
18100;SDS011;9177;49.156;8.142;2023-10-31T01:26:04;1.10;;;1.00;;
18100;SDS011;9177;49.156;8.142;2023-10-31T01:28:30;1.97;;;1.20;;
18100;SDS011;9177;49.156;8.142;2023-10-31T01:30:59;1.07;;;0.97;;
18100;SDS011;9177;49.156;8.142;2023-10-31T01:33:25;1.10;;;1.00;;
18100;SDS011;9177;49.156;8.142;2023-10-31T01:35:52;2.03;;;1.00;;
18100;SDS011;9177;49.156;8.142;2023-10-31T01:38:19;1.13;;;1.00;;
18100;SDS011;9177;49.156;8.142;2023-10-31T01:40:48;0.87;;;0.87;;
18100;SDS011;9177;49.156;8.142;2023-10-31T01:43:28;1.43;;;1.10;;
18100;SDS011;9177;49.156;8.142;2023-10-31T01:45:55;1.27;;;1.00;;
18100;SDS011;9177;49.156;8.142;2023-10-31T01:48:24;1.20;;;1.10;;
18100;SDS011;9177;49.156;8.142;2023-10-31T01:50:55;1.50;;;1.00;;
18100;SDS011;9177;49.156;8.142;2023-10-31T01:53:24;0.83;;;0.83;;
18100;SDS011;9177;49.156;8.142;2023-10-31T01:55:52;1.20;;;0.90;;
18100;SDS011;9177;49.156;8.142;2023-10-31T01:58:21;1.30;;;1.00;;
18100;SDS011;9177;49.156;8.142;2023-10-31T02:00:52;0.80;;;0.80;;
18100;SDS011;9177;49.156;8.142;2023-10-31T02:03:20;1.13;;;1.00;;
18100;SDS011;9177;49.156;8.142;2023-10-31T02:05:48;0.77;;;0.70;;
18100;SDS011;9177;49.156;8.142;2023-10-31T02:08:17;1.20;;;0.80;;
18100;SDS011;9177;49.156;8.142;2023-10-31T02:10:44;1.10;;;0.90;;
18100;SDS011;9177;49.156;8.142;2023-10-31T02:13:11;0.70;;;0.70;;
18100;SDS011;9177;49.156;8.142;2023-10-31T02:15:38;1.00;;;0.90;;
18100;SDS011;9177;49.156;8.142;2023-10-31T02:18:05;0.90;;;0.90;;
18100;SDS011;9177;49.156;8.142;2023-10-31T02:20:33;1.10;;;0.80;;
18100;SDS011;9177;49.156;8.142;2023-10-31T02:23:01;1.20;;;1.10;;
18100;SDS011;9177;49.156;8.142;2023-10-31T02:25:28;1.00;;;0.80;;
18100;SDS011;9177;49.156;8.142;2023-10-31T02:27:55;0.97;;;0.90;;
18100;SDS011;9177;49.156;8.142;2023-10-31T02:30:22;1.00;;;0.80;;
18100;SDS011;9177;49.156;8.142;2023-10-31T02:32:50;0.70;;;0.70;;
18100;SDS011;9177;49.156;8.142;2023-10-31T02:35:17;0.90;;;0.70;;
18100;SDS011;9177;49.156;8.142;2023-10-31T02:37:45;1.00;;;0.90;;
18100;SDS011;9177;49.156;8.142;2023-10-31T02:40:13;1.00;;;0.90;;
18100;SDS011;9177;49.156;8.142;2023-10-31T02:42:40;0.80;;;0.80;;
18100;SDS011;9177;49.156;8.142;2023-10-31T02:45:07;1.17;;;1.00;;
18100;SDS011;9177;49.156;8.142;2023-10-31T02:47:40;0.63;;;0.63;;
18100;SDS011;9177;49.156;8.142;2023-10-31T02:50:07;0.70;;;0.70;;
18100;SDS011;9177;49.156;8.142;2023-10-31T02:52:34;1.07;;;0.73;;
18100;SDS011;9177;49.156;8.142;2023-10-31T02:55:01;0.97;;;0.80;;
18100;SDS011;9177;49.156;8.142;2023-10-31T02:57:32;1.13;;;0.90;;
18100;SDS011;9177;49.156;8.142;2023-10-31T03:00:07;0.70;;;0.70;;
18100;SDS011;9177;49.156;8.142;2023-10-31T03:02:34;0.80;;;0.80;;
18100;SDS011;9177;49.156;8.142;2023-10-31T03:05:02;0.80;;;0.80;;
18100;SDS011;9177;49.156;8.142;2023-10-31T03:07:29;0.70;;;0.70;;
18100;SDS011;9177;49.156;8.142;2023-10-31T03:09:55;0.83;;;0.70;;
18100;SDS011;9177;49.156;8.142;2023-10-31T03:12:22;0.80;;;0.80;;
18100;SDS011;9177;49.156;8.142;2023-10-31T03:14:51;1.80;;;0.80;;
18100;SDS011;9177;49.156;8.142;2023-10-31T03:17:18;0.77;;;0.60;;
18100;SDS011;9177;49.156;8.142;2023-10-31T03:19:46;0.80;;;0.70;;
18100;SDS011;9177;49.156;8.142;2023-10-31T03:22:12;0.80;;;0.80;;
18100;SDS011;9177;49.156;8.142;2023-10-31T03:24:39;0.93;;;0.60;;
18100;SDS011;9177;49.156;8.142;2023-10-31T03:27:06;1.00;;;0.70;;
18100;SDS011;9177;49.156;8.142;2023-10-31T03:29:33;1.00;;;0.90;;
18100;SDS011;9177;49.156;8.142;2023-10-31T03:32:01;0.70;;;0.67;;
18100;SDS011;9177;49.156;8.142;2023-10-31T03:34:30;1.10;;;0.80;;
18100;SDS011;9177;49.156;8.142;2023-10-31T03:36:57;0.60;;;0.60;;
18100;SDS011;9177;49.156;8.142;2023-10-31T03:39:23;0.70;;;0.60;;
18100;SDS011;9177;49.156;8.142;2023-10-31T03:41:50;0.50;;;0.50;;
18100;SDS011;9177;49.156;8.142;2023-10-31T03:44:17;1.23;;;0.70;;
18100;SDS011;9177;49.156;8.142;2023-10-31T03:46:44;0.50;;;0.50;;
18100;SDS011;9177;49.156;8.142;2023-10-31T03:49:15;1.20;;;0.80;;
18100;SDS011;9177;49.156;8.142;2023-10-31T03:51:42;0.70;;;0.67;;
18100;SDS011;9177;49.156;8.142;2023-10-31T03:54:09;0.90;;;0.80;;
18100;SDS011;9177;49.156;8.142;2023-10-31T03:56:39;0.73;;;0.70;;
18100;SDS011;9177;49.156;8.142;2023-10-31T03:59:06;0.73;;;0.50;;
18100;SDS011;9177;49.156;8.142;2023-10-31T04:01:40;0.57;;;0.57;;
18100;SDS011;9177;49.156;8.142;2023-10-31T04:04:17;0.97;;;0.60;;
18100;SDS011;9177;49.156;8.142;2023-10-31T04:06:44;0.60;;;0.50;;
18100;SDS011;9177;49.156;8.142;2023-10-31T04:09:11;0.53;;;0.50;;
18100;SDS011;9177;49.156;8.142;2023-10-31T04:11:38;1.00;;;0.90;;
18100;SDS011;9177;49.156;8.142;2023-10-31T04:14:06;1.33;;;0.90;;
18100;SDS011;9177;49.156;8.142;2023-10-31T04:16:37;0.47;;;0.47;;
18100;SDS011;9177;49.156;8.142;2023-10-31T04:19:04;0.83;;;0.60;;
18100;SDS011;9177;49.156;8.142;2023-10-31T04:21:33;0.70;;;0.70;;
18100;SDS011;9177;49.156;8.142;2023-10-31T04:24:00;0.90;;;0.80;;
18100;SDS011;9177;49.156;8.142;2023-10-31T04:26:27;1.00;;;0.67;;
18100;SDS011;9177;49.156;8.142;2023-10-31T04:28:54;1.43;;;0.60;;
18100;SDS011;9177;49.156;8.142;2023-10-31T04:31:20;0.60;;;0.60;;
18100;SDS011;9177;49.156;8.142;2023-10-31T04:33:47;0.50;;;0.50;;
18100;SDS011;9177;49.156;8.142;2023-10-31T04:36:15;0.50;;;0.50;;
18100;SDS011;9177;49.156;8.142;2023-10-31T04:38:43;0.90;;;0.70;;
18100;SDS011;9177;49.156;8.142;2023-10-31T04:41:10;0.67;;;0.60;;
18100;SDS011;9177;49.156;8.142;2023-10-31T04:43:37;0.53;;;0.50;;
18100;SDS011;9177;49.156;8.142;2023-10-31T04:46:06;0.50;;;0.50;;
18100;SDS011;9177;49.156;8.142;2023-10-31T04:48:33;0.60;;;0.50;;
18100;SDS011;9177;49.156;8.142;2023-10-31T04:51:00;0.50;;;0.40;;
18100;SDS011;9177;49.156;8.142;2023-10-31T04:53:27;0.57;;;0.57;;
18100;SDS011;9177;49.156;8.142;2023-10-31T04:55:55;0.70;;;0.60;;
18100;SDS011;9177;49.156;8.142;2023-10-31T04:58:22;0.43;;;0.40;;
18100;SDS011;9177;49.156;8.142;2023-10-31T05:00:49;0.73;;;0.60;;
18100;SDS011;9177;49.156;8.142;2023-10-31T05:03:16;0.80;;;0.60;;
18100;SDS011;9177;49.156;8.142;2023-10-31T05:05:52;1.17;;;0.70;;
18100;SDS011;9177;49.156;8.142;2023-10-31T05:08:19;0.90;;;0.60;;
18100;SDS011;9177;49.156;8.142;2023-10-31T05:10:50;0.50;;;0.50;;
18100;SDS011;9177;49.156;8.142;2023-10-31T05:13:19;0.80;;;0.70;;
18100;SDS011;9177;49.156;8.142;2023-10-31T05:15:45;0.60;;;0.50;;
18100;SDS011;9177;49.156;8.142;2023-10-31T05:18:13;0.80;;;0.50;;
18100;SDS011;9177;49.156;8.142;2023-10-31T05:20:43;0.60;;;0.60;;
18100;SDS011;9177;49.156;8.142;2023-10-31T05:23:10;0.53;;;0.53;;
18100;SDS011;9177;49.156;8.142;2023-10-31T05:25:37;0.50;;;0.50;;
18100;SDS011;9177;49.156;8.142;2023-10-31T05:28:04;0.70;;;0.50;;
18100;SDS011;9177;49.156;8.142;2023-10-31T05:30:32;0.97;;;0.70;;
18100;SDS011;9177;49.156;8.142;2023-10-31T05:32:59;0.60;;;0.50;;
18100;SDS011;9177;49.156;8.142;2023-10-31T05:35:25;0.50;;;0.50;;
18100;SDS011;9177;49.156;8.142;2023-10-31T05:37:52;1.17;;;0.60;;
18100;SDS011;9177;49.156;8.142;2023-10-31T05:40:20;0.60;;;0.47;;
18100;SDS011;9177;49.156;8.142;2023-10-31T05:42:50;0.63;;;0.63;;
18100;SDS011;9177;49.156;8.142;2023-10-31T05:45:17;1.30;;;0.70;;
18100;SDS011;9177;49.156;8.142;2023-10-31T05:47:45;0.67;;;0.67;;
18100;SDS011;9177;49.156;8.142;2023-10-31T05:50:12;0.67;;;0.40;;
18100;SDS011;9177;49.156;8.142;2023-10-31T05:52:39;0.70;;;0.40;;
18100;SDS011;9177;49.156;8.142;2023-10-31T05:55:06;0.90;;;0.50;;
18100;SDS011;9177;49.156;8.142;2023-10-31T05:57:33;0.67;;;0.53;;
18100;SDS011;9177;49.156;8.142;2023-10-31T06:00:00;0.40;;;0.40;;
18100;SDS011;9177;49.156;8.142;2023-10-31T06:02:27;0.63;;;0.50;;
18100;SDS011;9177;49.156;8.142;2023-10-31T06:04:56;1.07;;;0.50;;
18100;SDS011;9177;49.156;8.142;2023-10-31T06:07:23;0.57;;;0.40;;
18100;SDS011;9177;49.156;8.142;2023-10-31T06:09:50;0.40;;;0.40;;
18100;SDS011;9177;49.156;8.142;2023-10-31T06:12:17;0.60;;;0.57;;
18100;SDS011;9177;49.156;8.142;2023-10-31T06:14:43;0.80;;;0.40;;
18100;SDS011;9177;49.156;8.142;2023-10-31T06:17:10;0.60;;;0.50;;
18100;SDS011;9177;49.156;8.142;2023-10-31T06:19:37;0.90;;;0.70;;
18100;SDS011;9177;49.156;8.142;2023-10-31T06:22:11;0.50;;;0.50;;
18100;SDS011;9177;49.156;8.142;2023-10-31T06:24:38;2.13;;;0.70;;
18100;SDS011;9177;49.156;8.142;2023-10-31T06:27:06;0.33;;;0.30;;
18100;SDS011;9177;49.156;8.142;2023-10-31T06:29:33;0.50;;;0.50;;
18100;SDS011;9177;49.156;8.142;2023-10-31T06:32:00;0.70;;;0.60;;
18100;SDS011;9177;49.156;8.142;2023-10-31T06:34:27;1.90;;;0.47;;
18100;SDS011;9177;49.156;8.142;2023-10-31T06:36:54;1.10;;;0.50;;
18100;SDS011;9177;49.156;8.142;2023-10-31T06:39:22;1.57;;;0.50;;
18100;SDS011;9177;49.156;8.142;2023-10-31T06:41:49;2.07;;;0.70;;
18100;SDS011;9177;49.156;8.142;2023-10-31T06:44:20;1.03;;;0.50;;
18100;SDS011;9177;49.156;8.142;2023-10-31T06:46:46;1.57;;;0.40;;
18100;SDS011;9177;49.156;8.142;2023-10-31T06:49:15;1.20;;;0.50;;
18100;SDS011;9177;49.156;8.142;2023-10-31T06:51:42;0.70;;;0.50;;
18100;SDS011;9177;49.156;8.142;2023-10-31T06:54:09;1.27;;;0.40;;
18100;SDS011;9177;49.156;8.142;2023-10-31T06:56:37;0.83;;;0.40;;
18100;SDS011;9177;49.156;8.142;2023-10-31T06:59:04;2.73;;;0.60;;
18100;SDS011;9177;49.156;8.142;2023-10-31T07:01:32;4.53;;;0.70;;
18100;SDS011;9177;49.156;8.142;2023-10-31T07:03:58;2.57;;;0.70;;
18100;SDS011;9177;49.156;8.142;2023-10-31T07:06:25;1.10;;;0.50;;
18100;SDS011;9177;49.156;8.142;2023-10-31T07:08:52;2.27;;;0.80;;
18100;SDS011;9177;49.156;8.142;2023-10-31T07:11:19;0.90;;;0.50;;
18100;SDS011;9177;49.156;8.142;2023-10-31T07:13:47;0.80;;;0.63;;
18100;SDS011;9177;49.156;8.142;2023-10-31T07:16:15;3.00;;;0.60;;
18100;SDS011;9177;49.156;8.142;2023-10-31T07:18:42;1.23;;;0.43;;
18100;SDS011;9177;49.156;8.142;2023-10-31T07:21:08;1.30;;;0.50;;
18100;SDS011;9177;49.156;8.142;2023-10-31T07:23:36;2.33;;;0.67;;
18100;SDS011;9177;49.156;8.142;2023-10-31T07:26:03;1.13;;;0.47;;
18100;SDS011;9177;49.156;8.142;2023-10-31T07:28:30;0.90;;;0.43;;
18100;SDS011;9177;49.156;8.142;2023-10-31T07:30:59;3.30;;;0.67;;
18100;SDS011;9177;49.156;8.142;2023-10-31T07:33:26;1.37;;;0.40;;
18100;SDS011;9177;49.156;8.142;2023-10-31T07:35:53;1.90;;;0.40;;
18100;SDS011;9177;49.156;8.142;2023-10-31T07:38:21;3.13;;;0.77;;
18100;SDS011;9177;49.156;8.142;2023-10-31T07:40:47;2.17;;;0.70;;
18100;SDS011;9177;49.156;8.142;2023-10-31T07:43:15;3.60;;;0.47;;
18100;SDS011;9177;49.156;8.142;2023-10-31T07:45:42;1.57;;;0.60;;
18100;SDS011;9177;49.156;8.142;2023-10-31T07:48:10;1.73;;;0.77;;
18100;SDS011;9177;49.156;8.142;2023-10-31T07:50:37;2.47;;;0.80;;
18100;SDS011;9177;49.156;8.142;2023-10-31T07:53:06;1.73;;;0.60;;
18100;SDS011;9177;49.156;8.142;2023-10-31T07:55:33;1.10;;;0.50;;
18100;SDS011;9177;49.156;8.142;2023-10-31T07:58:00;2.27;;;0.70;;
18100;SDS011;9177;49.156;8.142;2023-10-31T08:00:27;3.10;;;0.53;;
18100;SDS011;9177;49.156;8.142;2023-10-31T08:02:55;2.77;;;1.03;;
18100;SDS011;9177;49.156;8.142;2023-10-31T08:05:24;5.33;;;1.00;;
18100;SDS011;9177;49.156;8.142;2023-10-31T08:07:51;1.87;;;0.90;;
18100;SDS011;9177;49.156;8.142;2023-10-31T08:10:19;4.87;;;0.63;;
18100;SDS011;9177;49.156;8.142;2023-10-31T08:12:46;2.37;;;0.73;;
18100;SDS011;9177;49.156;8.142;2023-10-31T08:15:17;6.50;;;1.00;;
18100;SDS011;9177;49.156;8.142;2023-10-31T08:17:44;5.10;;;0.80;;
18100;SDS011;9177;49.156;8.142;2023-10-31T08:20:11;6.43;;;0.90;;
18100;SDS011;9177;49.156;8.142;2023-10-31T08:22:40;4.60;;;0.90;;
18100;SDS011;9177;49.156;8.142;2023-10-31T08:25:08;3.43;;;0.90;;
18100;SDS011;9177;49.156;8.142;2023-10-31T08:27:35;3.97;;;0.90;;
18100;SDS011;9177;49.156;8.142;2023-10-31T08:30:03;3.00;;;0.80;;
18100;SDS011;9177;49.156;8.142;2023-10-31T08:32:30;2.50;;;0.73;;
18100;SDS011;9177;49.156;8.142;2023-10-31T08:34:57;3.50;;;0.60;;
18100;SDS011;9177;49.156;8.142;2023-10-31T08:37:26;1.53;;;0.50;;
18100;SDS011;9177;49.156;8.142;2023-10-31T08:39:54;3.23;;;1.00;;
18100;SDS011;9177;49.156;8.142;2023-10-31T08:42:21;2.47;;;0.70;;
18100;SDS011;9177;49.156;8.142;2023-10-31T08:44:48;1.87;;;0.70;;
18100;SDS011;9177;49.156;8.142;2023-10-31T08:47:15;2.37;;;0.70;;
18100;SDS011;9177;49.156;8.142;2023-10-31T08:49:43;3.93;;;1.00;;
18100;SDS011;9177;49.156;8.142;2023-10-31T08:52:11;1.83;;;0.60;;
18100;SDS011;9177;49.156;8.142;2023-10-31T08:54:38;2.77;;;0.70;;
18100;SDS011;9177;49.156;8.142;2023-10-31T08:57:08;2.97;;;0.70;;
18100;SDS011;9177;49.156;8.142;2023-10-31T08:59:35;2.53;;;0.80;;
18100;SDS011;9177;49.156;8.142;2023-10-31T09:02:02;1.40;;;0.70;;
18100;SDS011;9177;49.156;8.142;2023-10-31T09:04:29;5.20;;;0.60;;
18100;SDS011;9177;49.156;8.142;2023-10-31T09:06:56;1.97;;;0.90;;
18100;SDS011;9177;49.156;8.142;2023-10-31T09:09:23;2.10;;;0.60;;
18100;SDS011;9177;49.156;8.142;2023-10-31T09:11:50;0.63;;;0.40;;
18100;SDS011;9177;49.156;8.142;2023-10-31T09:14:19;4.20;;;0.73;;
18100;SDS011;9177;49.156;8.142;2023-10-31T09:16:47;2.60;;;0.80;;
18100;SDS011;9177;49.156;8.142;2023-10-31T09:19:14;1.60;;;0.60;;
18100;SDS011;9177;49.156;8.142;2023-10-31T09:21:41;2.53;;;0.60;;
18100;SDS011;9177;49.156;8.142;2023-10-31T09:24:08;2.63;;;0.67;;
18100;SDS011;9177;49.156;8.142;2023-10-31T09:26:36;2.13;;;0.53;;
18100;SDS011;9177;49.156;8.142;2023-10-31T09:29:03;2.13;;;0.60;;
18100;SDS011;9177;49.156;8.142;2023-10-31T09:31:32;1.53;;;0.80;;
18100;SDS011;9177;49.156;8.142;2023-10-31T09:33:59;2.57;;;0.80;;
18100;SDS011;9177;49.156;8.142;2023-10-31T09:36:28;3.47;;;0.87;;
18100;SDS011;9177;49.156;8.142;2023-10-31T09:38:59;4.00;;;0.80;;
18100;SDS011;9177;49.156;8.142;2023-10-31T09:41:26;4.13;;;0.87;;
18100;SDS011;9177;49.156;8.142;2023-10-31T09:43:54;2.67;;;0.80;;
18100;SDS011;9177;49.156;8.142;2023-10-31T09:46:21;4.03;;;0.73;;
18100;SDS011;9177;49.156;8.142;2023-10-31T09:48:50;1.80;;;0.80;;
18100;SDS011;9177;49.156;8.142;2023-10-31T09:51:18;2.37;;;0.67;;
18100;SDS011;9177;49.156;8.142;2023-10-31T09:53:45;1.93;;;0.63;;
18100;SDS011;9177;49.156;8.142;2023-10-31T09:56:14;3.90;;;0.77;;
18100;SDS011;9177;49.156;8.142;2023-10-31T09:58:52;3.80;;;0.70;;
18100;SDS011;9177;49.156;8.142;2023-10-31T10:01:27;1.30;;;0.60;;
18100;SDS011;9177;49.156;8.142;2023-10-31T10:03:56;2.70;;;1.10;;
18100;SDS011;9177;49.156;8.142;2023-10-31T10:06:24;3.83;;;0.70;;
18100;SDS011;9177;49.156;8.142;2023-10-31T10:08:51;4.10;;;0.77;;
18100;SDS011;9177;49.156;8.142;2023-10-31T10:11:18;3.23;;;0.70;;
18100;SDS011;9177;49.156;8.142;2023-10-31T10:13:46;2.43;;;0.80;;
18100;SDS011;9177;49.156;8.142;2023-10-31T10:16:12;2.70;;;1.23;;
18100;SDS011;9177;49.156;8.142;2023-10-31T10:18:53;2.87;;;0.80;;
18100;SDS011;9177;49.156;8.142;2023-10-31T10:21:22;2.23;;;0.70;;
18100;SDS011;9177;49.156;8.142;2023-10-31T10:23:51;1.37;;;0.77;;
18100;SDS011;9177;49.156;8.142;2023-10-31T10:26:19;3.20;;;0.80;;
18100;SDS011;9177;49.156;8.142;2023-10-31T10:28:50;3.17;;;0.70;;
18100;SDS011;9177;49.156;8.142;2023-10-31T10:31:18;2.27;;;0.60;;
18100;SDS011;9177;49.156;8.142;2023-10-31T10:33:46;2.00;;;0.80;;
18100;SDS011;9177;49.156;8.142;2023-10-31T10:36:13;2.23;;;0.90;;
18100;SDS011;9177;49.156;8.142;2023-10-31T10:38:42;1.37;;;0.77;;
18100;SDS011;9177;49.156;8.142;2023-10-31T10:41:13;1.67;;;0.60;;
18100;SDS011;9177;49.156;8.142;2023-10-31T10:43:43;2.17;;;0.83;;
18100;SDS011;9177;49.156;8.142;2023-10-31T10:46:13;1.37;;;0.70;;
18100;SDS011;9177;49.156;8.142;2023-10-31T10:48:45;1.40;;;0.80;;
18100;SDS011;9177;49.156;8.142;2023-10-31T10:51:17;2.37;;;0.70;;
18100;SDS011;9177;49.156;8.142;2023-10-31T10:53:54;3.30;;;0.73;;
18100;SDS011;9177;49.156;8.142;2023-10-31T10:56:25;2.80;;;0.50;;
18100;SDS011;9177;49.156;8.142;2023-10-31T10:58:55;2.10;;;0.70;;
18100;SDS011;9177;49.156;8.142;2023-10-31T11:01:28;2.27;;;0.80;;
18100;SDS011;9177;49.156;8.142;2023-10-31T11:03:57;0.93;;;0.63;;
18100;SDS011;9177;49.156;8.142;2023-10-31T11:06:25;2.33;;;0.83;;
18100;SDS011;9177;49.156;8.142;2023-10-31T11:08:54;1.90;;;0.63;;
18100;SDS011;9177;49.156;8.142;2023-10-31T11:11:22;1.40;;;0.50;;
18100;SDS011;9177;49.156;8.142;2023-10-31T11:13:50;0.80;;;0.60;;
18100;SDS011;9177;49.156;8.142;2023-10-31T11:16:19;2.23;;;0.70;;
18100;SDS011;9177;49.156;8.142;2023-10-31T11:18:53;2.20;;;0.80;;
18100;SDS011;9177;49.156;8.142;2023-10-31T11:21:22;2.77;;;0.80;;
18100;SDS011;9177;49.156;8.142;2023-10-31T11:23:57;4.10;;;0.77;;
18100;SDS011;9177;49.156;8.142;2023-10-31T11:26:25;1.33;;;0.73;;
18100;SDS011;9177;49.156;8.142;2023-10-31T11:29:01;2.97;;;0.63;;
18100;SDS011;9177;49.156;8.142;2023-10-31T11:31:30;1.13;;;0.67;;
18100;SDS011;9177;49.156;8.142;2023-10-31T11:34:00;1.87;;;0.90;;
18100;SDS011;9177;49.156;8.142;2023-10-31T11:36:29;2.03;;;0.83;;
18100;SDS011;9177;49.156;8.142;2023-10-31T11:39:10;2.93;;;0.90;;
18100;SDS011;9177;49.156;8.142;2023-10-31T11:41:39;2.57;;;0.90;;
18100;SDS011;9177;49.156;8.142;2023-10-31T11:44:07;3.97;;;0.90;;
18100;SDS011;9177;49.156;8.142;2023-10-31T11:46:35;1.77;;;1.00;;
18100;SDS011;9177;49.156;8.142;2023-10-31T11:49:02;3.80;;;1.20;;
18100;SDS011;9177;49.156;8.142;2023-10-31T11:51:31;2.13;;;0.93;;
18100;SDS011;9177;49.156;8.142;2023-10-31T11:53:59;2.23;;;1.00;;
18100;SDS011;9177;49.156;8.142;2023-10-31T11:56:29;2.50;;;1.10;;
18100;SDS011;9177;49.156;8.142;2023-10-31T11:58:58;2.37;;;0.90;;
18100;SDS011;9177;49.156;8.142;2023-10-31T12:01:25;2.27;;;0.80;;
18100;SDS011;9177;49.156;8.142;2023-10-31T12:03:53;4.17;;;1.07;;
18100;SDS011;9177;49.156;8.142;2023-10-31T12:06:20;2.30;;;0.90;;
18100;SDS011;9177;49.156;8.142;2023-10-31T12:08:48;3.20;;;1.03;;
18100;SDS011;9177;49.156;8.142;2023-10-31T12:11:17;3.47;;;1.00;;
18100;SDS011;9177;49.156;8.142;2023-10-31T12:13:53;3.13;;;0.90;;
18100;SDS011;9177;49.156;8.142;2023-10-31T12:16:25;2.00;;;1.20;;
18100;SDS011;9177;49.156;8.142;2023-10-31T12:18:56;4.47;;;1.03;;
18100;SDS011;9177;49.156;8.142;2023-10-31T12:21:35;1.90;;;0.93;;
18100;SDS011;9177;49.156;8.142;2023-10-31T12:24:03;2.80;;;1.00;;
18100;SDS011;9177;49.156;8.142;2023-10-31T12:26:32;2.10;;;0.90;;
18100;SDS011;9177;49.156;8.142;2023-10-31T12:29:08;3.17;;;1.00;;
18100;SDS011;9177;49.156;8.142;2023-10-31T12:31:39;1.80;;;0.83;;
18100;SDS011;9177;49.156;8.142;2023-10-31T12:34:08;4.63;;;0.90;;
18100;SDS011;9177;49.156;8.142;2023-10-31T12:36:36;4.10;;;1.07;;
18100;SDS011;9177;49.156;8.142;2023-10-31T12:39:04;3.07;;;0.93;;
18100;SDS011;9177;49.156;8.142;2023-10-31T12:41:34;2.60;;;1.27;;
18100;SDS011;9177;49.156;8.142;2023-10-31T12:44:01;3.87;;;0.90;;
18100;SDS011;9177;49.156;8.142;2023-10-31T12:46:32;2.57;;;1.40;;
18100;SDS011;9177;49.156;8.142;2023-10-31T12:49:00;3.47;;;1.27;;
18100;SDS011;9177;49.156;8.142;2023-10-31T12:51:28;6.10;;;1.60;;
18100;SDS011;9177;49.156;8.142;2023-10-31T12:53:55;10.60;;;2.20;;
18100;SDS011;9177;49.156;8.142;2023-10-31T12:56:35;10.83;;;2.17;;
18100;SDS011;9177;49.156;8.142;2023-10-31T12:59:06;7.73;;;2.20;;
18100;SDS011;9177;49.156;8.142;2023-10-31T13:01:36;11.80;;;2.63;;
18100;SDS011;9177;49.156;8.142;2023-10-31T13:04:03;8.57;;;2.57;;
18100;SDS011;9177;49.156;8.142;2023-10-31T13:06:31;6.97;;;2.93;;
18100;SDS011;9177;49.156;8.142;2023-10-31T13:08:59;14.33;;;3.67;;
18100;SDS011;9177;49.156;8.142;2023-10-31T13:11:29;10.43;;;3.43;;
18100;SDS011;9177;49.156;8.142;2023-10-31T13:13:57;13.03;;;4.40;;
18100;SDS011;9177;49.156;8.142;2023-10-31T13:16:24;12.07;;;3.90;;
18100;SDS011;9177;49.156;8.142;2023-10-31T13:18:54;17.00;;;4.83;;
18100;SDS011;9177;49.156;8.142;2023-10-31T13:21:21;19.10;;;4.70;;
18100;SDS011;9177;49.156;8.142;2023-10-31T13:23:49;14.93;;;4.87;;
18100;SDS011;9177;49.156;8.142;2023-10-31T13:26:16;14.13;;;3.63;;
18100;SDS011;9177;49.156;8.142;2023-10-31T13:28:43;14.00;;;4.27;;
18100;SDS011;9177;49.156;8.142;2023-10-31T13:31:10;17.27;;;4.40;;
18100;SDS011;9177;49.156;8.142;2023-10-31T13:33:39;17.20;;;4.23;;
18100;SDS011;9177;49.156;8.142;2023-10-31T13:36:08;9.20;;;3.33;;
18100;SDS011;9177;49.156;8.142;2023-10-31T13:38:36;12.30;;;4.00;;
18100;SDS011;9177;49.156;8.142;2023-10-31T13:41:04;13.10;;;4.17;;
18100;SDS011;9177;49.156;8.142;2023-10-31T13:43:31;21.67;;;4.57;;
18100;SDS011;9177;49.156;8.142;2023-10-31T13:45:58;17.53;;;3.73;;
18100;SDS011;9177;49.156;8.142;2023-10-31T13:48:25;16.17;;;4.03;;
18100;SDS011;9177;49.156;8.142;2023-10-31T13:50:52;19.00;;;4.13;;
18100;SDS011;9177;49.156;8.142;2023-10-31T13:53:21;12.30;;;4.10;;
18100;SDS011;9177;49.156;8.142;2023-10-31T13:55:48;13.43;;;4.53;;
18100;SDS011;9177;49.156;8.142;2023-10-31T13:58:16;12.23;;;3.80;;
18100;SDS011;9177;49.156;8.142;2023-10-31T14:00:43;14.27;;;4.40;;
18100;SDS011;9177;49.156;8.142;2023-10-31T14:03:11;17.07;;;4.20;;
18100;SDS011;9177;49.156;8.142;2023-10-31T14:05:40;14.33;;;3.87;;
18100;SDS011;9177;49.156;8.142;2023-10-31T14:08:08;12.93;;;3.77;;
18100;SDS011;9177;49.156;8.142;2023-10-31T14:10:37;18.97;;;4.60;;
18100;SDS011;9177;49.156;8.142;2023-10-31T14:13:05;12.57;;;3.67;;
18100;SDS011;9177;49.156;8.142;2023-10-31T14:15:32;15.17;;;4.30;;
18100;SDS011;9177;49.156;8.142;2023-10-31T14:17:59;8.83;;;3.83;;
18100;SDS011;9177;49.156;8.142;2023-10-31T14:20:27;16.37;;;4.03;;
18100;SDS011;9177;49.156;8.142;2023-10-31T14:22:54;14.57;;;3.67;;
18100;SDS011;9177;49.156;8.142;2023-10-31T14:25:22;14.60;;;4.03;;
18100;SDS011;9177;49.156;8.142;2023-10-31T14:27:51;8.60;;;3.63;;
18100;SDS011;9177;49.156;8.142;2023-10-31T14:30:18;11.90;;;4.07;;
18100;SDS011;9177;49.156;8.142;2023-10-31T14:32:45;12.97;;;3.53;;
18100;SDS011;9177;49.156;8.142;2023-10-31T14:35:12;11.07;;;3.80;;
18100;SDS011;9177;49.156;8.142;2023-10-31T14:37:39;8.33;;;3.77;;
18100;SDS011;9177;49.156;8.142;2023-10-31T14:40:07;15.67;;;3.10;;
18100;SDS011;9177;49.156;8.142;2023-10-31T14:42:35;11.70;;;3.50;;
18100;SDS011;9177;49.156;8.142;2023-10-31T14:45:04;12.17;;;3.20;;
18100;SDS011;9177;49.156;8.142;2023-10-31T14:47:31;14.50;;;3.60;;
18100;SDS011;9177;49.156;8.142;2023-10-31T14:49:59;13.57;;;3.90;;
18100;SDS011;9177;49.156;8.142;2023-10-31T14:52:26;9.77;;;3.50;;
18100;SDS011;9177;49.156;8.142;2023-10-31T14:54:54;8.80;;;3.43;;
18100;SDS011;9177;49.156;8.142;2023-10-31T14:57:21;9.10;;;3.13;;
18100;SDS011;9177;49.156;8.142;2023-10-31T14:59:48;6.70;;;2.70;;
18100;SDS011;9177;49.156;8.142;2023-10-31T15:02:17;11.03;;;3.40;;
18100;SDS011;9177;49.156;8.142;2023-10-31T15:04:44;12.93;;;3.57;;
18100;SDS011;9177;49.156;8.142;2023-10-31T15:07:11;23.13;;;4.23;;